createdAt,value
2018-11-28T00:00:00.382Z,2.50
2018-11-28T00:02:28.693Z,2.50
2018-11-28T00:04:56.975Z,2.50
2018-11-28T00:07:32.583Z,2.50
2018-11-28T00:10:00.875Z,2.50
2018-11-28T00:12:29.176Z,2.50
2018-11-28T00:14:57.446Z,2.50
2018-11-28T00:17:25.718Z,2.60
2018-11-28T00:19:53.998Z,2.50
2018-11-28T00:22:22.270Z,2.60
2018-11-28T00:24:50.531Z,2.60
2018-11-28T00:27:18.815Z,2.60
2018-11-28T00:29:47.068Z,2.10
2018-11-28T00:32:15.348Z,2.60
2018-11-28T00:34:43.630Z,2.60
2018-11-28T00:37:11.907Z,2.50
2018-11-28T00:39:40.179Z,2.50
2018-11-28T00:42:08.451Z,2.40
2018-11-28T00:44:36.787Z,2.30
2018-11-28T00:47:05.087Z,2.30
2018-11-28T00:49:33.382Z,2.30
2018-11-28T00:52:01.651Z,2.30
2018-11-28T00:54:29.932Z,2.30
2018-11-28T00:56:58.210Z,2.20
2018-11-28T00:59:26.500Z,2.10
2018-11-28T01:01:54.772Z,2.10
2018-11-28T01:04:23.079Z,2.10
2018-11-28T01:06:51.362Z,2.00
2018-11-28T01:09:19.635Z,1.90
2018-11-28T01:11:47.902Z,1.90
2018-11-28T01:14:16.162Z,2.00
2018-11-28T01:16:44.422Z,2.00
2018-11-28T01:19:12.698Z,2.00
2018-11-28T01:21:40.970Z,2.00
2018-11-28T01:24:09.238Z,2.00
2018-11-28T01:26:37.540Z,2.10
2018-11-28T01:29:06.123Z,2.00
2018-11-28T01:31:34.390Z,2.00
2018-11-28T01:34:02.671Z,1.90
2018-11-28T01:36:30.947Z,1.90
2018-11-28T01:38:59.249Z,1.80
2018-11-28T01:41:27.522Z,1.70
2018-11-28T01:43:55.799Z,1.70
2018-11-28T01:46:24.087Z,1.60
2018-11-28T01:48:52.371Z,1.60
2018-11-28T01:51:20.639Z,1.50
2018-11-28T01:53:48.945Z,1.50
2018-11-28T01:56:17.231Z,1.50
2018-11-28T01:58:45.543Z,1.40
2018-11-28T02:01:13.821Z,1.40
2018-11-28T02:03:42.115Z,1.30
2018-11-28T02:06:10.461Z,1.20
2018-11-28T02:08:38.804Z,1.20
2018-11-28T02:11:07.090Z,1.20
2018-11-28T02:13:35.407Z,1.10
2018-11-28T02:16:03.764Z,1.00
2018-11-28T02:18:32.031Z,0.90
2018-11-28T02:21:00.347Z,0.90
2018-11-28T02:23:28.632Z,0.70
2018-11-28T02:25:56.947Z,0.70
2018-11-28T02:28:25.390Z,0.60
2018-11-28T02:30:53.826Z,0.70
2018-11-28T02:33:22.131Z,0.70
2018-11-28T02:35:50.439Z,0.70
2018-11-28T02:38:18.736Z,0.70
2018-11-28T02:40:47.031Z,0.70
2018-11-28T02:43:15.323Z,0.80
2018-11-28T02:45:43.664Z,0.80
2018-11-28T02:48:11.961Z,0.80
2018-11-28T02:50:40.275Z,0.90
2018-11-28T02:53:08.570Z,0.90
2018-11-28T02:55:36.883Z,0.90
2018-11-28T02:58:05.307Z,1.00
2018-11-28T03:00:33.648Z,1.00
2018-11-28T03:03:01.951Z,0.90
2018-11-28T03:05:30.255Z,0.90
2018-11-28T03:07:58.544Z,0.80
2018-11-28T03:10:26.828Z,0.80
2018-11-28T03:12:55.144Z,0.80
2018-11-28T03:15:28.913Z,0.80
2018-11-28T03:17:57.223Z,0.80
2018-11-28T03:20:25.557Z,0.80
2018-11-28T03:22:53.859Z,0.80
2018-11-28T03:25:22.207Z,0.70
2018-11-28T03:27:50.818Z,0.80
2018-11-28T03:30:19.133Z,0.70
2018-11-28T03:32:47.452Z,0.70
2018-11-28T03:35:16.214Z,0.70
2018-11-28T03:37:44.599Z,0.70
2018-11-28T03:40:13.096Z,0.60
2018-11-28T03:42:41.671Z,0.60
2018-11-28T03:45:14.827Z,0.60
2018-11-28T03:47:43.732Z,0.60
2018-11-28T03:50:12.990Z,0.50
2018-11-28T03:52:41.284Z,0.40
2018-11-28T03:55:12.483Z,0.30
2018-11-28T03:57:40.829Z,0.30
2018-11-28T04:00:11.648Z,0.30
2018-11-28T04:02:39.920Z,0.20
2018-11-28T04:05:08.605Z,0.30
2018-11-28T04:07:36.891Z,0.30
2018-11-28T04:10:07.550Z,0.30
2018-11-28T04:12:35.816Z,0.20
2018-11-28T04:15:04.497Z,0.10
2018-11-28T04:17:32.759Z,0.10
2018-11-28T04:20:01.024Z,0.20
2018-11-28T04:22:29.303Z,0.20
2018-11-28T04:24:57.591Z,0.10
2018-11-28T04:27:25.856Z,0.00
2018-11-28T04:29:54.277Z,0.00
2018-11-28T04:32:22.448Z,0.00
2018-11-28T04:34:50.725Z,0.00
2018-11-28T04:37:19.008Z,0.00
2018-11-28T04:39:47.291Z,0.00
2018-11-28T04:42:15.546Z,0.10
2018-11-28T04:44:43.822Z,0.10
2018-11-28T04:47:12.082Z,0.10
2018-11-28T04:49:40.371Z,0.00
2018-11-28T04:52:08.634Z,0.00
2018-11-28T04:54:36.907Z,0.10
2018-11-28T04:57:05.495Z,0.10
2018-11-28T04:59:33.766Z,0.10
2018-11-28T05:02:02.049Z,0.10
2018-11-28T05:04:30.307Z,0.10
2018-11-28T05:07:30.016Z,0.10
2018-11-28T05:09:58.659Z,0.10
2018-11-28T05:12:27.073Z,0.10
2018-11-28T05:14:55.334Z,0.00
2018-11-28T05:17:23.592Z,0.00
2018-11-28T05:19:51.864Z,0.10
2018-11-28T05:22:20.123Z,0.00
2018-11-28T05:24:48.404Z,0.00
2018-11-28T05:27:16.691Z,0.00
2018-11-28T05:29:44.963Z,0.00
2018-11-28T05:32:13.249Z,0.00
2018-11-28T05:34:41.504Z,0.00
2018-11-28T05:37:09.808Z,0.00
2018-11-28T05:39:38.090Z,0.00
2018-11-28T05:42:06.441Z,-0.10
2018-11-28T05:44:34.703Z,-0.10
2018-11-28T05:47:03.000Z,-0.20
2018-11-28T05:49:31.259Z,-0.20
2018-11-28T05:51:59.543Z,-0.20
2018-11-28T05:54:27.814Z,-0.30
2018-11-28T05:56:56.110Z,-0.40
2018-11-28T05:59:27.352Z,-0.50
2018-11-28T06:01:52.679Z,-0.50
2018-11-28T06:04:20.958Z,-0.50
2018-11-28T06:06:49.236Z,-0.60
2018-11-28T06:09:17.532Z,-0.70
2018-11-28T06:11:45.843Z,-0.70
2018-11-28T06:14:14.127Z,-0.60
2018-11-28T06:16:42.387Z,-0.50
2018-11-28T06:19:10.680Z,-0.40
2018-11-28T06:21:38.980Z,-0.30
2018-11-28T06:24:07.272Z,-0.30
2018-11-28T06:26:35.554Z,-0.30
2018-11-28T06:29:03.843Z,-0.10
2018-11-28T06:31:32.111Z,0.10
2018-11-28T06:34:00.390Z,0.10
2018-11-28T06:36:28.661Z,0.10
2018-11-28T06:38:56.934Z,0.00
2018-11-28T06:41:25.223Z,-0.10
2018-11-28T06:43:53.538Z,-0.10
2018-11-28T06:46:21.863Z,-0.20
2018-11-28T06:48:50.170Z,-0.30
2018-11-28T06:51:18.455Z,-0.40
2018-11-28T06:53:47.286Z,-0.30
2018-11-28T06:56:15.068Z,-0.30
2018-11-28T06:58:43.387Z,-0.20
2018-11-28T07:01:11.700Z,-0.20
2018-11-28T07:03:40.011Z,-0.20
2018-11-28T07:06:08.278Z,-0.20
2018-11-28T07:08:36.551Z,-0.30
2018-11-28T07:11:04.869Z,-0.20
2018-11-28T07:13:33.123Z,-0.20
2018-11-28T07:16:01.391Z,-0.20
2018-11-28T07:18:40.887Z,-0.30
2018-11-28T07:21:09.171Z,-0.30
2018-11-28T07:23:37.451Z,-0.30
2018-11-28T07:26:05.796Z,-0.30
2018-11-28T07:28:34.086Z,-0.30
2018-11-28T07:31:02.401Z,-0.30
2018-11-28T07:33:30.670Z,-0.20
2018-11-28T07:35:58.950Z,-0.20
2018-11-28T07:38:27.223Z,-0.10
2018-11-28T07:40:55.526Z,-0.10
2018-11-28T07:43:23.851Z,-0.10
2018-11-28T07:45:52.616Z,-0.10
2018-11-28T07:48:20.902Z,0.00
2018-11-28T07:50:49.200Z,0.00
2018-11-28T07:53:17.464Z,0.10
2018-11-28T07:55:45.746Z,0.10
2018-11-28T07:58:14.036Z,0.20
2018-11-28T08:00:42.302Z,0.10
2018-11-28T08:03:10.590Z,0.20
2018-11-28T08:05:39.266Z,0.20
2018-11-28T08:08:09.046Z,0.20
2018-11-28T08:10:37.446Z,0.20
2018-11-28T08:13:06.323Z,0.10
2018-11-28T08:15:34.604Z,0.10
2018-11-28T08:18:02.898Z,0.10
2018-11-28T08:20:31.170Z,0.10
2018-11-28T08:22:59.475Z,0.20
2018-11-28T08:25:28.193Z,0.10
2018-11-28T08:27:56.055Z,0.20
2018-11-28T08:30:25.305Z,0.30
2018-11-28T08:32:54.499Z,0.30
2018-11-28T08:35:22.851Z,0.30
2018-11-28T08:37:51.148Z,0.30
2018-11-28T08:40:23.638Z,0.30
2018-11-28T08:42:52.432Z,0.30
2018-11-28T08:45:21.405Z,0.30
2018-11-28T08:47:51.731Z,0.40
2018-11-28T08:50:24.107Z,0.50
2018-11-28T08:52:52.439Z,0.60
2018-11-28T08:55:20.803Z,0.50
2018-11-28T08:57:49.132Z,0.50
2018-11-28T09:00:19.579Z,0.60
2018-11-28T09:02:48.866Z,0.60
2018-11-28T09:05:18.008Z,0.70
2018-11-28T09:07:46.327Z,0.70
2018-11-28T09:10:16.374Z,0.70
2018-11-28T09:12:45.242Z,0.60
2018-11-28T09:15:21.508Z,0.60
2018-11-28T09:17:49.909Z,0.60
2018-11-28T09:20:18.277Z,0.60
2018-11-28T09:22:46.781Z,0.60
2018-11-28T09:25:16.868Z,0.60
2018-11-28T09:27:48.123Z,0.70
2018-11-28T09:30:17.237Z,0.70
2018-11-28T09:32:45.801Z,0.80
2018-11-28T09:35:14.712Z,0.90
2018-11-28T09:37:45.916Z,0.90
2018-11-28T09:40:14.569Z,1.00
2018-11-28T09:42:42.847Z,0.90
2018-11-28T09:45:13.084Z,0.90
2018-11-28T09:47:41.416Z,0.80
2018-11-28T09:50:12.563Z,0.90
2018-11-28T09:52:40.873Z,1.00
2018-11-28T09:55:13.714Z,1.00
2018-11-28T09:57:42.023Z,1.00
2018-11-28T10:00:15.587Z,1.00
2018-11-28T10:02:43.908Z,1.00
2018-11-28T10:05:13.677Z,1.00
2018-11-28T10:07:42.003Z,1.10
2018-11-28T10:10:11.548Z,1.10
2018-11-28T10:12:39.883Z,1.10
2018-11-28T10:15:16.704Z,1.30
2018-11-28T10:17:45.159Z,1.40
2018-11-28T10:20:14.288Z,1.50
2018-11-28T10:22:42.780Z,1.50
2018-11-28T10:25:17.170Z,1.50
2018-11-28T10:27:48.487Z,1.30
2018-11-28T10:30:18.991Z,1.30
2018-11-28T10:32:47.851Z,1.30
2018-11-28T10:35:16.191Z,1.30
2018-11-28T10:37:44.483Z,1.30
2018-11-28T10:40:15.153Z,1.30
2018-11-28T10:42:43.487Z,1.30
2018-11-28T10:45:13.154Z,1.20
2018-11-28T10:47:41.471Z,1.20
2018-11-28T10:50:11.295Z,1.20
2018-11-28T10:52:39.645Z,1.20
2018-11-28T10:55:10.539Z,1.30
2018-11-28T10:57:38.834Z,1.20
2018-11-28T11:00:13.695Z,1.20
2018-11-28T11:02:47.972Z,1.30
2018-11-28T11:05:21.526Z,1.30
2018-11-28T11:07:55.427Z,1.40
2018-11-28T11:10:55.736Z,1.30
2018-11-28T11:13:29.223Z,1.20
2018-11-28T11:15:58.272Z,1.20
2018-11-28T11:18:27.512Z,1.10
2018-11-28T11:20:55.725Z,1.10
2018-11-28T11:23:24.164Z,1.20
2018-11-28T11:25:53.107Z,1.20
2018-11-28T11:28:21.433Z,1.30
2018-11-28T11:30:49.791Z,1.30
2018-11-28T11:33:18.135Z,1.40
2018-11-28T11:35:46.464Z,1.30
2018-11-28T11:38:14.792Z,1.20
2018-11-28T11:40:43.133Z,1.30
2018-11-28T11:43:11.435Z,1.30
2018-11-28T11:45:39.835Z,1.30
2018-11-28T11:48:08.079Z,1.30
2018-11-28T11:50:36.415Z,1.30
2018-11-28T11:53:05.225Z,1.40
2018-11-28T11:55:34.102Z,1.30
2018-11-28T11:58:02.154Z,1.40
2018-11-28T12:00:30.467Z,1.50
2018-11-28T12:03:08.937Z,1.50
2018-11-28T12:05:37.319Z,1.50
2018-11-28T12:08:06.729Z,1.50
2018-11-28T12:10:35.031Z,1.50
2018-11-28T12:13:03.350Z,1.50
2018-11-28T12:15:31.657Z,1.50
2018-11-28T12:17:59.960Z,1.50
2018-11-28T12:20:37.226Z,1.40
2018-11-28T12:23:05.683Z,1.40
2018-11-28T12:25:34.025Z,1.30
2018-11-28T12:28:02.339Z,1.30
2018-11-28T12:30:30.679Z,1.30
2018-11-28T12:32:58.992Z,1.30
2018-11-28T12:35:27.369Z,1.30
2018-11-28T12:37:55.695Z,1.30
2018-11-28T12:40:23.996Z,1.40
2018-11-28T12:42:52.870Z,1.50
2018-11-28T12:45:21.585Z,1.60
2018-11-28T12:47:50.090Z,1.60
2018-11-28T12:50:24.479Z,1.60
2018-11-28T12:52:53.828Z,1.60
2018-11-28T12:55:22.528Z,1.40
2018-11-28T12:57:51.795Z,1.40
2018-11-28T13:00:21.356Z,1.30
2018-11-28T13:02:49.707Z,1.30
2018-11-28T13:05:21.083Z,1.30
2018-11-28T13:07:49.408Z,1.30
2018-11-28T13:10:19.902Z,1.30
2018-11-28T13:12:48.962Z,1.30
2018-11-28T13:15:18.263Z,1.40
2018-11-28T13:17:46.633Z,1.50
2018-11-28T13:20:15.942Z,1.40
2018-11-28T13:22:44.744Z,1.40
2018-11-28T13:25:15.244Z,1.30
2018-11-28T13:27:43.707Z,1.30
2018-11-28T13:30:16.932Z,1.30
2018-11-28T13:32:45.620Z,1.20
2018-11-28T13:35:18.011Z,1.10
2018-11-28T13:37:47.285Z,1.10
2018-11-28T13:40:16.673Z,1.10
2018-11-28T13:42:44.991Z,1.10
2018-11-28T13:45:30.654Z,1.20
2018-11-28T13:47:58.979Z,1.20
2018-11-28T13:50:27.256Z,1.20
2018-11-28T13:52:56.207Z,1.30
2018-11-28T13:55:41.830Z,1.40
2018-11-28T13:58:00.822Z,1.40
2018-11-28T14:00:29.137Z,1.30
2018-11-28T14:02:57.475Z,1.30
2018-11-28T14:05:25.827Z,1.40
2018-11-28T14:07:54.345Z,1.40
2018-11-28T14:10:22.599Z,1.40
2018-11-28T14:12:50.923Z,1.40
2018-11-28T14:15:20.214Z,1.40
2018-11-28T14:17:52.844Z,1.50
2018-11-28T14:20:21.188Z,1.50
2018-11-28T14:22:49.507Z,1.50
2018-11-28T14:25:17.811Z,1.30
2018-11-28T14:27:46.129Z,1.20
2018-11-28T14:30:17.689Z,1.20
2018-11-28T14:32:46.355Z,1.20
2018-11-28T14:35:14.795Z,1.10
2018-11-28T14:37:43.299Z,1.10
2018-11-28T14:40:12.920Z,1.10
2018-11-28T14:42:41.211Z,1.20
2018-11-28T14:45:14.551Z,1.20
2018-11-28T14:47:42.975Z,1.20
2018-11-28T14:50:17.355Z,1.20
2018-11-28T14:52:45.765Z,1.10
2018-11-28T14:55:15.578Z,1.00
2018-11-28T14:57:43.895Z,1.00
2018-11-28T15:00:17.370Z,1.10
2018-11-28T15:02:46.760Z,1.20
2018-11-28T15:05:20.339Z,1.10
2018-11-28T15:07:49.940Z,1.20
2018-11-28T15:10:19.059Z,1.20
2018-11-28T15:12:47.393Z,1.10
2018-11-28T15:15:15.683Z,1.00
2018-11-28T15:17:43.996Z,0.90
2018-11-28T15:20:12.335Z,0.90
2018-11-28T15:22:40.652Z,0.90
2018-11-28T15:25:09.771Z,0.90
2018-11-28T15:27:38.095Z,0.90
2018-11-28T15:30:07.974Z,0.90
2018-11-28T15:32:36.281Z,0.90
2018-11-28T15:35:04.843Z,0.90
2018-11-28T15:37:33.146Z,0.90
2018-11-28T15:40:01.495Z,0.90
2018-11-28T15:42:29.811Z,0.80
2018-11-28T15:44:58.144Z,0.70
2018-11-28T15:47:26.459Z,0.70
2018-11-28T15:49:54.791Z,0.80
2018-11-28T15:52:23.145Z,0.80
2018-11-28T15:54:51.455Z,0.80
2018-11-28T15:57:19.763Z,0.80
2018-11-28T15:59:48.087Z,0.80
2018-11-28T16:02:16.431Z,0.80
2018-11-28T16:04:44.722Z,0.80
2018-11-28T16:07:13.043Z,0.90
2018-11-28T16:09:46.790Z,0.80
2018-11-28T16:12:15.091Z,0.70
2018-11-28T16:14:43.387Z,0.70
2018-11-28T16:17:11.727Z,0.70
2018-11-28T16:19:40.039Z,0.80
2018-11-28T16:22:08.345Z,0.90
2018-11-28T16:24:36.697Z,0.90
2018-11-28T16:27:05.431Z,0.90
2018-11-28T16:29:33.785Z,0.90
2018-11-28T16:32:02.179Z,0.80
2018-11-28T16:34:30.499Z,0.80
2018-11-28T16:36:58.843Z,0.70
2018-11-28T16:39:27.151Z,0.70
2018-11-28T16:41:55.471Z,0.70
2018-11-28T16:44:23.791Z,0.70
2018-11-28T16:46:52.123Z,0.70
2018-11-28T16:49:20.422Z,0.70
2018-11-28T16:51:48.833Z,0.80
2018-11-28T16:54:17.152Z,0.80
2018-11-28T16:56:45.490Z,0.80
2018-11-28T16:59:13.779Z,0.80
2018-11-28T17:01:42.099Z,0.80
2018-11-28T17:04:10.442Z,0.70
2018-11-28T17:06:38.772Z,0.70
2018-11-28T17:09:08.988Z,0.80
2018-11-28T17:11:37.362Z,0.80
2018-11-28T17:14:06.071Z,0.80
2018-11-28T17:16:34.374Z,0.90
2018-11-28T17:19:02.723Z,0.80
2018-11-28T17:21:31.023Z,0.70
2018-11-28T17:23:59.373Z,0.70
2018-11-28T17:26:27.667Z,0.70
2018-11-28T17:28:55.954Z,0.70
2018-11-28T17:31:24.255Z,0.60
2018-11-28T17:33:52.564Z,0.60
2018-11-28T17:36:20.858Z,0.60
2018-11-28T17:38:49.143Z,0.70
2018-11-28T17:41:17.485Z,0.70
2018-11-28T17:43:45.788Z,0.70
2018-11-28T17:46:14.074Z,0.80
2018-11-28T17:48:42.378Z,0.80
2018-11-28T17:51:10.718Z,0.80
2018-11-28T17:53:39.038Z,0.90
2018-11-28T17:56:07.377Z,0.80
2018-11-28T17:58:35.657Z,0.80
2018-11-28T18:01:03.946Z,0.70
2018-11-28T18:03:32.211Z,0.60
2018-11-28T18:06:00.486Z,0.60
2018-11-28T18:08:28.728Z,0.60
2018-11-28T18:11:07.913Z,0.50
2018-11-28T18:13:39.500Z,0.40
2018-11-28T18:16:04.517Z,0.40
2018-11-28T18:18:32.781Z,0.40
2018-11-28T18:21:01.067Z,0.40
2018-11-28T18:23:29.394Z,0.40
2018-11-28T18:25:57.699Z,0.40
2018-11-28T18:28:25.979Z,0.40
2018-11-28T18:30:54.274Z,0.40
2018-11-28T18:33:22.530Z,0.40
2018-11-28T18:35:50.803Z,0.40
2018-11-28T18:38:19.072Z,0.40
2018-11-28T18:40:47.348Z,0.50
2018-11-28T18:43:15.621Z,0.70
2018-11-28T18:45:46.600Z,0.70
2018-11-28T18:48:14.868Z,0.70
2018-11-28T18:50:43.115Z,0.80
2018-11-28T18:53:11.585Z,0.90
2018-11-28T18:55:39.987Z,0.80
2018-11-28T18:58:09.632Z,0.80
2018-11-28T19:00:37.921Z,0.80
2018-11-28T19:03:07.304Z,0.70
2018-11-28T19:05:35.637Z,0.60
2018-11-28T19:08:04.083Z,0.60
2018-11-28T19:10:32.468Z,0.50
2018-11-28T19:13:00.743Z,0.70
2018-11-28T19:15:29.239Z,0.70
2018-11-28T19:17:58.289Z,0.70
2018-11-28T19:20:26.559Z,0.70
2018-11-28T19:22:56.671Z,0.70
2018-11-28T19:25:26.878Z,0.60
2018-11-28T19:27:55.235Z,0.60
2018-11-28T19:30:31.054Z,0.60
2018-11-28T19:32:55.151Z,0.50
2018-11-28T19:35:23.850Z,0.40
2018-11-28T19:37:52.063Z,0.40
2018-11-28T19:40:29.040Z,0.40
2018-11-28T19:42:57.303Z,0.40
2018-11-28T19:45:25.604Z,0.20
2018-11-28T19:47:53.856Z,0.30
2018-11-28T19:50:26.041Z,0.30
2018-11-28T19:52:54.347Z,0.20
2018-11-28T19:55:22.634Z,0.10
2018-11-28T19:57:50.895Z,0.20
2018-11-28T20:00:19.558Z,0.20
2018-11-28T20:02:47.891Z,0.30
2018-11-28T20:05:16.172Z,0.30
2018-11-28T20:07:47.713Z,0.40
2018-11-28T20:10:17.203Z,0.50
2018-11-28T20:12:45.503Z,0.50
2018-11-28T20:15:16.003Z,0.50
2018-11-28T20:17:44.298Z,0.50
2018-11-28T20:20:13.792Z,0.60
2018-11-28T20:22:42.156Z,0.50
2018-11-28T20:25:13.522Z,0.50
2018-11-28T20:27:42.387Z,0.50
2018-11-28T20:30:16.293Z,0.40
2018-11-28T20:32:44.707Z,0.30
2018-11-28T20:35:13.009Z,0.40
2018-11-28T20:37:41.922Z,0.40
2018-11-28T20:40:18.857Z,0.50
2018-11-28T20:42:48.574Z,0.60
2018-11-28T20:45:16.927Z,0.60
2018-11-28T20:47:45.215Z,0.70
2018-11-28T20:50:17.931Z,0.60
2018-11-28T20:52:48.824Z,0.60
2018-11-28T20:55:17.168Z,0.60
2018-11-28T20:57:45.511Z,0.70
2018-11-28T21:00:19.303Z,0.50
2018-11-28T21:02:47.571Z,0.50
2018-11-28T21:05:16.001Z,0.60
2018-11-28T21:07:44.343Z,0.70
2018-11-28T21:10:20.007Z,0.80
2018-11-28T21:12:48.278Z,0.80
2018-11-28T21:15:16.567Z,0.70
2018-11-28T21:17:45.414Z,0.60
2018-11-28T21:20:17.605Z,0.30
2018-11-28T21:22:48.276Z,0.20
2018-11-28T21:25:16.642Z,0.10
2018-11-28T21:27:44.950Z,0.20
2018-11-28T21:30:15.075Z,0.20
2018-11-28T21:32:43.763Z,0.20
2018-11-28T21:35:16.286Z,0.20
2018-11-28T21:37:44.627Z,0.30
2018-11-28T21:40:13.000Z,2.60
2018-11-28T21:42:41.269Z,0.50
2018-11-28T21:45:10.982Z,0.60
2018-11-28T21:47:39.367Z,0.60
2018-11-28T21:50:09.428Z,0.70
2018-11-28T21:52:37.688Z,0.70
2018-11-28T21:57:34.762Z,0.70
2018-11-28T22:00:03.277Z,0.70
2018-11-28T22:02:31.530Z,0.70
2018-11-28T22:04:59.837Z,0.50
2018-11-28T22:07:28.382Z,0.50
2018-11-28T22:09:56.707Z,0.60
2018-11-28T22:12:24.977Z,0.50
2018-11-28T22:14:53.253Z,0.40
2018-11-28T22:17:21.531Z,0.40
2018-11-28T22:19:49.809Z,0.50
2018-11-28T22:22:18.076Z,0.40
2018-11-28T22:24:46.323Z,0.50
2018-11-28T22:27:14.595Z,0.60
2018-11-28T22:29:42.854Z,0.60
2018-11-28T22:32:11.135Z,0.70
2018-11-28T22:34:39.400Z,0.50
2018-11-28T22:37:07.658Z,0.40
2018-11-28T22:39:35.930Z,0.40
2018-11-28T22:42:04.263Z,0.40
2018-11-28T22:44:32.531Z,0.40
2018-11-28T22:47:00.802Z,0.40
2018-11-28T22:49:29.084Z,0.50
2018-11-28T22:51:57.342Z,0.60
2018-11-28T22:54:25.687Z,0.70
2018-11-28T22:56:53.960Z,0.70
2018-11-28T22:59:22.213Z,0.70
2018-11-28T23:03:58.334Z,0.70
2018-11-28T23:06:26.616Z,0.70
2018-11-28T23:08:55.061Z,0.70
2018-11-28T23:11:23.312Z,0.60
2018-11-28T23:13:51.580Z,0.70
2018-11-28T23:16:19.827Z,0.70
2018-11-28T23:18:48.083Z,0.80
2018-11-28T23:21:16.343Z,0.80
2018-11-28T23:23:44.609Z,0.80
2018-11-28T23:26:12.930Z,0.80
2018-11-28T23:28:41.216Z,0.90
2018-11-28T23:31:09.495Z,0.90
2018-11-28T23:33:37.783Z,1.00
2018-11-28T23:36:06.062Z,1.00
2018-11-28T23:38:34.393Z,1.00
2018-11-28T23:41:02.659Z,0.80
2018-11-28T23:43:30.923Z,0.60
2018-11-28T23:45:59.187Z,0.60
2018-11-28T23:48:27.447Z,0.70
2018-11-28T23:50:55.701Z,0.70
2018-11-28T23:53:23.986Z,0.80
2018-11-28T23:55:52.527Z,0.80
2018-11-28T23:58:20.835Z,0.80
